Página principal
METAR-TAF:

METAR-TAF

Aeroportos :

Chengdu, China

Aeroporto Internacional de Chengdu Shuangliu

latitude: 30-40N, longitude: 104-01E, altura: 508 m

Observação actual do tempo

O boletim foi feito há 28 minutos, às 14:00 UTC
Vento 2 kt de nor-noroeste
Temperatura 22°C
Humidade 94%
Pressão 1012 hPa
Visibilidade: 6000 m
Nuvens dispersasa uma altura de 4000 ft

METAR: ZUUU 231400Z 33001MPS 6000 SCT040 22/21 Q1012 NOSIG

Hora: 22:28 (14:28 UTC)

Previsão

O boletim foi feito há 6 horas e 17 minutos, às 08:11 UTC
Previsão válida de 23 às 12 UTC a 24 às 12 UTC
Vento 6 kt de nor-noroeste
Visibilidade: 3500 m
Nuvens dispersasa uma altura de 4000 ft
neblina
Temporariamente
de 23 às 15 UTC a 23 às 18 UTC
aguaceiros fracos de chuva

TAF: ZUUU 230811Z 2312/2412 33003MPS 3500 BR SCT040 TX26/2407Z TN21/2323Z TEMPO 2315/2318 -SHRA

Observações e previsões do tempo de mais de 4000 aeroportos (mensagens METAR e TAF).

As estações disponíveis são os pontos amarelos e vermelhos sobre o mapa.

Mova o rato sobre o mapa para ver o nome da estação.

Depois clique no ponto para visualizar as observações e previsões meteorológicas.

Para alterar o mapa : clique nos botões verdes com uma cruz preta para aumentar o zoom; no botão verde com uma pitada de zoom; ou nas setas verdes para mapas adjacentes.


METAR-TAF: